createdAt,value
2023-10-26T00:00:44.234Z,12.25
2023-10-26T00:01:44.248Z,12.26
2023-10-26T00:02:44.257Z,12.26
2023-10-26T00:03:44.301Z,12.27
2023-10-26T00:04:44.393Z,12.29
2023-10-26T00:05:44.203Z,12.29
2023-10-26T00:06:44.170Z,12.30
2023-10-26T00:07:44.160Z,12.30
2023-10-26T00:08:44.182Z,12.31
2023-10-26T00:09:44.146Z,12.31
2023-10-26T00:10:44.137Z,12.31
2023-10-26T00:11:44.136Z,12.32
2023-10-26T00:12:44.126Z,12.32
2023-10-26T00:13:44.133Z,12.32
2023-10-26T00:14:44.245Z,12.32
2023-10-26T00:15:44.082Z,12.32
2023-10-26T00:16:44.063Z,12.32
2023-10-26T00:17:44.114Z,12.32
2023-10-26T00:18:44.196Z,12.32
2023-10-26T00:19:44.045Z,12.32
2023-10-26T00:20:44.028Z,12.32
2023-10-26T00:21:44.066Z,12.33
2023-10-26T00:22:44.013Z,12.33
2023-10-26T00:23:44.025Z,12.34
2023-10-26T00:25:43.987Z,12.34
2023-10-26T00:26:43.960Z,12.34
2023-10-26T00:27:43.971Z,12.34
2023-10-26T00:28:43.972Z,12.34
2023-10-26T00:29:43.940Z,12.34
2023-10-26T00:30:43.964Z,12.34
2023-10-26T00:31:43.922Z,12.34
2023-10-26T00:32:43.980Z,12.35
2023-10-26T00:33:43.976Z,12.35
2023-10-26T00:34:51.433Z,12.35
2023-10-26T00:35:43.886Z,12.37
2023-10-26T00:36:43.852Z,12.38
2023-10-26T00:37:43.880Z,12.39
2023-10-26T00:38:43.859Z,12.39
2023-10-26T00:39:43.866Z,12.39
2023-10-26T00:40:43.827Z,12.40
2023-10-26T00:41:43.806Z,12.40
2023-10-26T00:42:43.841Z,12.40
2023-10-26T00:43:43.872Z,12.41
2023-10-26T00:44:44.002Z,12.41
2023-10-26T00:45:43.790Z,12.41
2023-10-26T00:46:43.734Z,12.41
2023-10-26T00:47:43.799Z,12.42
2023-10-26T00:48:44.129Z,12.42
2023-10-26T00:49:43.725Z,12.42
2023-10-26T00:50:43.709Z,12.42
2023-10-26T00:51:43.781Z,12.42
2023-10-26T00:52:43.676Z,12.42
2023-10-26T00:53:43.696Z,12.42
2023-10-26T00:54:43.864Z,12.42
2023-10-26T00:55:43.667Z,12.42
2023-10-26T00:56:43.653Z,12.42
2023-10-26T00:57:43.644Z,12.42
2023-10-26T00:58:43.664Z,12.42
2023-10-26T00:59:43.622Z,12.42
2023-10-26T01:00:43.651Z,12.42
2023-10-26T01:01:43.609Z,12.42
2023-10-26T01:02:43.584Z,12.42
2023-10-26T01:03:43.604Z,12.42
2023-10-26T01:04:43.793Z,12.42
2023-10-26T01:05:43.562Z,12.42
2023-10-26T01:06:43.587Z,12.42
2023-10-26T01:07:43.519Z,12.41
2023-10-26T01:08:43.544Z,12.41
2023-10-26T01:09:43.524Z,12.41
2023-10-26T01:10:43.518Z,12.41
2023-10-26T01:11:43.593Z,12.41
2023-10-26T01:12:43.577Z,12.41
2023-10-26T01:13:43.486Z,12.42
2023-10-26T01:14:43.663Z,12.42
2023-10-26T01:15:43.462Z,12.42
2023-10-26T01:16:43.441Z,12.42
2023-10-26T01:17:43.480Z,12.43
2023-10-26T01:18:43.499Z,12.43
2023-10-26T01:19:43.393Z,12.44
2023-10-26T01:20:43.405Z,12.45
2023-10-26T01:21:43.389Z,12.45
2023-10-26T01:22:43.365Z,12.45
2023-10-26T01:23:43.348Z,12.44
2023-10-26T01:24:43.594Z,12.44
2023-10-26T01:25:43.349Z,12.44
2023-10-26T01:26:43.314Z,12.44
2023-10-26T01:27:43.304Z,12.44
2023-10-26T01:28:43.323Z,12.44
2023-10-26T01:29:43.303Z,12.44
2023-10-26T01:30:43.276Z,12.44
2023-10-26T01:31:43.288Z,12.44
2023-10-26T01:32:43.281Z,12.44
2023-10-26T01:33:43.284Z,12.44
2023-10-26T01:34:43.448Z,12.44
2023-10-26T01:35:43.270Z,12.45
2023-10-26T01:36:43.216Z,12.45
2023-10-26T01:37:43.227Z,12.46
2023-10-26T01:38:43.223Z,12.46
2023-10-26T01:39:43.220Z,12.46
2023-10-26T01:40:43.184Z,12.46
2023-10-26T01:41:43.180Z,12.46
2023-10-26T01:42:43.149Z,12.46
2023-10-26T01:43:43.156Z,12.46
2023-10-26T01:44:43.263Z,12.45
2023-10-26T01:45:43.140Z,12.44
2023-10-26T01:46:43.105Z,12.43
2023-10-26T01:47:43.133Z,12.43
2023-10-26T01:48:43.166Z,12.42
2023-10-26T01:49:43.087Z,12.42
2023-10-26T01:50:43.099Z,12.41
2023-10-26T01:51:43.071Z,12.41
2023-10-26T01:52:43.056Z,12.41
2023-10-26T01:53:43.034Z,12.41
2023-10-26T01:54:43.219Z,12.41
2023-10-26T01:55:42.999Z,12.41
2023-10-26T01:56:43.006Z,12.41
2023-10-26T01:57:43.045Z,12.42
2023-10-26T01:58:42.991Z,12.42
2023-10-26T01:59:42.979Z,12.43
2023-10-26T02:00:42.961Z,12.44
2023-10-26T02:01:42.991Z,12.44
2023-10-26T02:02:42.969Z,12.44
2023-10-26T02:03:42.945Z,12.44
2023-10-26T02:04:43.207Z,12.44
2023-10-26T02:05:42.985Z,12.44
2023-10-26T02:06:43.011Z,12.44
2023-10-26T02:07:42.891Z,12.44
2023-10-26T02:08:42.853Z,12.44
2023-10-26T02:09:42.874Z,12.44
2023-10-26T02:10:42.872Z,12.43
2023-10-26T02:11:42.844Z,12.42
2023-10-26T02:12:42.830Z,12.41
2023-10-26T02:13:42.838Z,12.39
2023-10-26T02:14:42.996Z,12.38
2023-10-26T02:15:42.822Z,12.37
2023-10-26T02:16:42.776Z,12.36
2023-10-26T02:17:42.832Z,12.35
2023-10-26T02:18:42.820Z,12.33
2023-10-26T02:19:42.769Z,12.31
2023-10-26T02:20:42.780Z,12.29
2023-10-26T02:21:42.747Z,12.28
2023-10-26T02:22:42.715Z,12.26
2023-10-26T02:23:42.745Z,12.25
2023-10-26T02:24:43.007Z,12.24
2023-10-26T02:25:42.694Z,12.23
2023-10-26T02:26:42.677Z,12.23
2023-10-26T02:27:42.671Z,12.22
2023-10-26T02:28:42.705Z,12.23
2023-10-26T02:29:42.651Z,12.22
2023-10-26T02:30:42.621Z,12.22
2023-10-26T02:31:42.652Z,12.22
2023-10-26T02:32:42.631Z,12.22
2023-10-26T02:33:42.671Z,12.22
2023-10-26T02:34:42.866Z,12.22
2023-10-26T02:35:42.576Z,12.23
2023-10-26T02:36:42.575Z,12.23
2023-10-26T02:37:42.550Z,12.23
2023-10-26T02:38:42.571Z,12.22
2023-10-26T02:39:42.565Z,12.22
2023-10-26T02:40:42.554Z,12.21
2023-10-26T02:41:42.549Z,12.21
2023-10-26T02:42:42.517Z,12.19
2023-10-26T02:43:42.496Z,12.18
2023-10-26T02:44:42.737Z,12.17
2023-10-26T02:45:42.464Z,12.17
2023-10-26T02:46:42.443Z,12.16
2023-10-26T02:47:42.457Z,12.16
2023-10-26T02:48:42.488Z,12.16
2023-10-26T02:49:42.433Z,12.16
2023-10-26T02:50:42.682Z,12.15
2023-10-26T02:51:42.444Z,12.15
2023-10-26T02:52:42.388Z,12.14
2023-10-26T02:53:42.379Z,12.14
2023-10-26T02:54:42.557Z,12.14
2023-10-26T02:55:44.229Z,12.14
2023-10-26T02:56:42.344Z,12.14
2023-10-26T02:57:42.359Z,12.14
2023-10-26T02:58:42.572Z,12.14
2023-10-26T02:59:42.312Z,12.14
2023-10-26T03:00:42.315Z,12.13
2023-10-26T03:01:42.315Z,12.13
2023-10-26T03:02:42.289Z,12.13
2023-10-26T03:03:42.326Z,12.12
2023-10-26T03:04:42.446Z,12.12
2023-10-26T03:05:42.277Z,12.11
2023-10-26T03:06:42.261Z,12.11
2023-10-26T03:07:42.528Z,12.10
2023-10-26T03:08:42.482Z,12.10
2023-10-26T03:09:42.353Z,12.09
2023-10-26T03:10:42.222Z,12.09
2023-10-26T03:11:42.221Z,12.09
2023-10-26T03:12:42.177Z,12.09
2023-10-26T03:13:42.167Z,12.09
2023-10-26T03:14:42.299Z,12.09
2023-10-26T03:15:42.176Z,12.09
2023-10-26T03:16:42.164Z,12.08
2023-10-26T03:17:42.134Z,12.07
2023-10-26T03:18:42.178Z,12.06
2023-10-26T03:19:42.110Z,12.05
2023-10-26T03:20:42.140Z,12.03
2023-10-26T03:21:42.133Z,12.01
2023-10-26T03:22:42.102Z,12.00
2023-10-26T03:23:42.410Z,12.00
2023-10-26T03:24:42.561Z,12.00
2023-10-26T03:25:42.070Z,12.00
2023-10-26T03:26:42.048Z,12.00
2023-10-26T03:27:42.055Z,11.99
2023-10-26T03:28:42.027Z,11.97
2023-10-26T03:29:42.316Z,11.96
2023-10-26T03:30:42.057Z,11.94
2023-10-26T03:31:42.024Z,11.93
2023-10-26T03:32:42.007Z,11.93
2023-10-26T03:33:42.027Z,11.92
2023-10-26T03:34:42.155Z,11.91
2023-10-26T03:35:41.988Z,11.90
2023-10-26T03:36:41.945Z,11.89
2023-10-26T03:37:42.016Z,11.87
2023-10-26T03:38:42.209Z,11.86
2023-10-26T03:39:41.919Z,11.85
2023-10-26T03:40:41.984Z,11.85
2023-10-26T03:41:41.913Z,11.84
2023-10-26T03:42:41.924Z,11.84
2023-10-26T03:43:41.873Z,11.84
2023-10-26T03:44:42.139Z,11.84
2023-10-26T03:45:42.161Z,11.83
2023-10-26T03:46:41.825Z,11.82
2023-10-26T03:47:41.962Z,11.80
2023-10-26T03:48:41.894Z,11.79
2023-10-26T03:49:41.855Z,11.79
2023-10-26T03:50:41.843Z,11.78
2023-10-26T03:51:41.784Z,11.78
2023-10-26T03:52:41.792Z,11.79
2023-10-26T03:53:42.057Z,11.79
2023-10-26T03:54:41.833Z,11.79
2023-10-26T03:55:42.131Z,11.79
2023-10-26T03:56:41.776Z,11.79
2023-10-26T03:57:41.720Z,11.79
2023-10-26T03:58:41.710Z,11.79
2023-10-26T03:59:41.746Z,11.78
2023-10-26T04:00:41.678Z,11.78
2023-10-26T04:01:41.706Z,11.78
2023-10-26T04:02:41.675Z,11.77
2023-10-26T04:03:41.690Z,11.76
2023-10-26T04:04:41.814Z,11.75
2023-10-26T04:05:41.670Z,11.74
2023-10-26T04:06:41.628Z,11.74
2023-10-26T04:07:41.660Z,11.73
2023-10-26T04:08:41.587Z,11.73
2023-10-26T04:09:41.583Z,11.73
2023-10-26T04:10:41.620Z,11.73
2023-10-26T04:11:41.599Z,11.73
2023-10-26T04:12:41.516Z,11.73
2023-10-26T04:13:41.540Z,11.73
2023-10-26T04:14:41.548Z,11.73
2023-10-26T04:15:41.551Z,11.73
2023-10-26T04:16:41.519Z,11.73
2023-10-26T04:17:41.551Z,11.73
2023-10-26T04:18:41.541Z,11.73
2023-10-26T04:19:41.495Z,11.73
2023-10-26T04:20:41.527Z,11.73
2023-10-26T04:21:41.476Z,11.73
2023-10-26T04:22:41.449Z,11.73
2023-10-26T04:23:41.445Z,11.73
2023-10-26T04:24:41.426Z,11.73
2023-10-26T04:25:54.036Z,11.73
2023-10-26T04:26:42.606Z,11.72
2023-10-26T04:27:41.426Z,11.71
2023-10-26T04:28:51.585Z,11.69
2023-10-26T04:29:42.435Z,11.68
2023-10-26T04:30:41.362Z,11.67
2023-10-26T04:31:41.446Z,11.66
2023-10-26T04:32:41.358Z,11.65
2023-10-26T04:33:41.396Z,11.64
2023-10-26T04:34:41.294Z,11.63
2023-10-26T04:35:41.449Z,11.62
2023-10-26T04:36:41.285Z,11.62
2023-10-26T04:37:41.265Z,11.61
2023-10-26T04:38:41.253Z,11.61
2023-10-26T04:39:41.287Z,11.61
2023-10-26T04:40:41.274Z,11.61
2023-10-26T04:41:41.238Z,11.61
2023-10-26T04:42:41.232Z,11.60
2023-10-26T04:43:41.214Z,11.60
2023-10-26T04:44:41.317Z,11.59
2023-10-26T04:45:41.249Z,11.58
2023-10-26T04:46:41.250Z,11.58
2023-10-26T04:47:41.207Z,11.58
2023-10-26T04:48:41.209Z,11.57
2023-10-26T04:49:41.161Z,11.57
2023-10-26T04:50:41.143Z,11.57
2023-10-26T04:51:41.190Z,11.57
2023-10-26T04:52:41.183Z,11.57
2023-10-26T04:53:41.125Z,11.57
2023-10-26T04:54:41.165Z,11.56
2023-10-26T04:55:41.158Z,11.56
2023-10-26T04:56:41.110Z,11.56
2023-10-26T04:57:41.087Z,11.56
2023-10-26T04:58:41.060Z,11.56
2023-10-26T04:59:41.110Z,11.56
2023-10-26T05:00:41.332Z,11.56
2023-10-26T05:01:45.242Z,11.56
2023-10-26T05:03:52.833Z,12.61
2023-10-26T05:04:52.824Z,12.19
2023-10-26T05:05:52.847Z,11.91
2023-10-26T05:06:52.859Z,11.76
2023-10-26T05:07:52.791Z,11.68
2023-10-26T05:08:52.771Z,11.63
2023-10-26T05:09:52.772Z,11.61
2023-10-26T05:10:52.792Z,11.60
2023-10-26T05:11:53.190Z,11.58
2023-10-26T05:12:52.733Z,11.58
2023-10-26T05:13:52.721Z,11.57
2023-10-26T05:14:52.712Z,11.57
2023-10-26T05:15:52.759Z,11.56
2023-10-26T05:16:52.760Z,11.56
2023-10-26T05:17:52.695Z,11.56
2023-10-26T05:18:52.663Z,11.56
2023-10-26T05:19:52.651Z,11.56
2023-10-26T05:20:52.660Z,11.56
2023-10-26T05:21:52.680Z,11.57
2023-10-26T05:22:52.614Z,11.56
2023-10-26T05:23:52.624Z,11.56
2023-10-26T05:24:52.598Z,11.55
2023-10-26T05:25:52.588Z,11.55
2023-10-26T05:26:52.598Z,11.55
2023-10-26T05:27:52.601Z,11.54
2023-10-26T05:28:52.553Z,11.54
2023-10-26T05:29:52.540Z,11.53
2023-10-26T05:30:52.531Z,11.53
2023-10-26T05:31:52.579Z,11.53
2023-10-26T05:32:52.536Z,11.53
2023-10-26T05:33:52.603Z,11.52
2023-10-26T05:34:52.495Z,11.52
2023-10-26T05:35:52.472Z,11.51
2023-10-26T05:36:52.485Z,11.51
2023-10-26T05:37:52.461Z,11.51
2023-10-26T05:38:52.449Z,11.50
2023-10-26T05:39:52.448Z,11.50
2023-10-26T05:40:52.429Z,11.50
2023-10-26T05:41:52.492Z,11.50
2023-10-26T05:42:52.393Z,11.50
2023-10-26T05:43:52.387Z,11.50
2023-10-26T05:44:52.388Z,11.51
2023-10-26T05:45:52.396Z,11.51
2023-10-26T05:46:52.390Z,11.52
2023-10-26T05:47:52.391Z,11.53
2023-10-26T05:48:52.372Z,11.53
2023-10-26T05:49:52.342Z,11.54
2023-10-26T05:50:52.307Z,11.54
2023-10-26T05:51:52.324Z,11.55
2023-10-26T05:52:52.303Z,11.55
2023-10-26T05:53:52.354Z,11.55
2023-10-26T05:54:52.260Z,11.54
2023-10-26T05:55:52.238Z,11.53
2023-10-26T05:56:52.292Z,11.52
2023-10-26T05:57:52.234Z,11.51
2023-10-26T05:58:52.226Z,11.50
2023-10-26T05:59:52.226Z,11.50
2023-10-26T06:00:52.200Z,11.49
2023-10-26T06:01:52.294Z,11.49
2023-10-26T06:02:52.245Z,11.48
2023-10-26T06:03:52.152Z,11.47
2023-10-26T06:04:52.285Z,11.45
2023-10-26T06:05:52.161Z,11.43
2023-10-26T06:06:52.177Z,11.41
2023-10-26T06:07:52.164Z,11.40
2023-10-26T06:08:52.107Z,11.40
2023-10-26T06:09:52.104Z,11.39
2023-10-26T06:10:52.088Z,11.39
2023-10-26T06:11:52.084Z,11.39
2023-10-26T06:12:52.187Z,11.39
2023-10-26T06:13:52.080Z,11.39
2023-10-26T06:14:52.053Z,11.40
2023-10-26T06:15:52.032Z,11.40
2023-10-26T06:16:52.066Z,11.40
2023-10-26T06:17:52.032Z,11.41
2023-10-26T06:18:51.997Z,11.40
2023-10-26T06:19:51.970Z,11.40
2023-10-26T06:20:52.184Z,11.39
2023-10-26T06:21:51.983Z,11.39
2023-10-26T06:22:51.959Z,11.39
2023-10-26T06:23:51.959Z,11.38
2023-10-26T06:24:51.937Z,11.38
2023-10-26T06:25:51.974Z,11.38
2023-10-26T06:26:51.904Z,11.37
2023-10-26T06:27:51.918Z,11.37
2023-10-26T06:28:51.905Z,11.37
2023-10-26T06:29:51.908Z,11.37
2023-10-26T06:30:51.879Z,11.37
2023-10-26T06:31:51.936Z,11.37
2023-10-26T06:32:51.892Z,11.37
2023-10-26T06:33:51.922Z,11.37
2023-10-26T06:34:59.366Z,11.36
2023-10-26T06:35:51.796Z,11.36
2023-10-26T06:36:51.831Z,11.36
2023-10-26T06:37:51.800Z,11.37
2023-10-26T06:38:51.778Z,11.38
2023-10-26T06:39:51.924Z,11.38
2023-10-26T06:40:51.758Z,11.39
2023-10-26T06:41:51.800Z,11.39
2023-10-26T06:42:51.792Z,11.38
2023-10-26T06:43:51.763Z,11.37
2023-10-26T06:44:51.719Z,11.37
2023-10-26T06:45:51.740Z,11.36
2023-10-26T06:46:51.765Z,11.36
2023-10-26T06:47:51.764Z,11.36
2023-10-26T06:48:51.740Z,11.36
2023-10-26T06:49:51.652Z,11.35
2023-10-26T06:50:51.669Z,11.34
2023-10-26T06:51:51.726Z,11.33
2023-10-26T06:52:51.693Z,11.32
2023-10-26T06:53:51.630Z,11.31
2023-10-26T06:54:51.642Z,11.30
2023-10-26T06:55:51.744Z,11.30
2023-10-26T06:56:51.682Z,11.30
2023-10-26T06:57:51.624Z,11.30
2023-10-26T06:58:51.548Z,11.30
2023-10-26T06:59:51.697Z,11.30
2023-10-26T07:00:53.191Z,11.30
2023-10-26T07:02:08.357Z,11.31
2023-10-26T07:02:52.607Z,11.31
2023-10-26T07:03:51.641Z,11.32
2023-10-26T07:04:51.590Z,11.33
2023-10-26T07:05:51.493Z,11.33
2023-10-26T07:06:51.547Z,11.34
2023-10-26T07:07:51.508Z,11.34
2023-10-26T07:08:56.457Z,11.35
2023-10-26T07:09:52.438Z,11.35
2023-10-26T07:10:51.474Z,11.36
2023-10-26T07:11:51.517Z,11.37
2023-10-26T07:12:51.460Z,11.38
2023-10-26T07:13:51.429Z,11.39
2023-10-26T07:14:51.462Z,11.40
2023-10-26T07:15:51.440Z,11.41
2023-10-26T07:16:51.440Z,11.42
2023-10-26T07:17:51.446Z,11.43
2023-10-26T07:18:51.385Z,11.45
2023-10-26T07:19:51.453Z,11.46
2023-10-26T07:20:51.325Z,11.47
2023-10-26T07:21:51.371Z,11.48
2023-10-26T07:22:51.362Z,11.49
2023-10-26T07:23:51.359Z,11.50
2023-10-26T07:24:51.344Z,11.51
2023-10-26T07:25:51.384Z,11.52
2023-10-26T07:26:51.264Z,11.52
2023-10-26T07:27:51.274Z,11.53
2023-10-26T07:28:51.302Z,11.54
2023-10-26T07:29:51.320Z,11.55
2023-10-26T07:30:51.212Z,11.55
2023-10-26T07:31:51.437Z,11.56
2023-10-26T07:32:51.317Z,11.56
2023-10-26T07:33:51.235Z,11.57
2023-10-26T07:34:51.201Z,11.57
2023-10-26T07:35:51.275Z,11.58
2023-10-26T07:36:51.143Z,11.58
2023-10-26T07:38:05.282Z,11.58
2023-10-26T07:39:44.726Z,11.58
2023-10-26T07:39:52.231Z,11.58
2023-10-26T07:40:52.192Z,11.59
2023-10-26T07:42:08.094Z,11.60
2023-10-26T07:42:52.213Z,11.62
2023-10-26T07:43:51.157Z,11.65
2023-10-26T07:44:51.072Z,11.68
2023-10-26T07:45:51.088Z,11.71
2023-10-26T07:46:51.060Z,11.74
2023-10-26T07:47:51.117Z,11.76
2023-10-26T07:48:51.071Z,11.79
2023-10-26T07:49:51.017Z,11.82
2023-10-26T07:50:51.090Z,11.85
2023-10-26T07:51:51.003Z,11.89
2023-10-26T07:52:51.058Z,11.94
2023-10-26T07:53:51.037Z,11.98
2023-10-26T07:54:50.989Z,12.03
2023-10-26T07:55:50.953Z,12.07
2023-10-26T07:56:50.926Z,12.11
2023-10-26T07:57:50.939Z,12.15
2023-10-26T07:58:50.983Z,12.19
2023-10-26T07:59:50.921Z,12.22
2023-10-26T08:00:50.880Z,12.24
2023-10-26T08:01:50.924Z,12.26
2023-10-26T08:02:51.078Z,12.27
2023-10-26T08:03:50.845Z,12.29
2023-10-26T08:04:50.964Z,12.31
2023-10-26T08:05:50.841Z,12.33
2023-10-26T08:06:50.921Z,12.35
2023-10-26T08:07:50.815Z,12.37
2023-10-26T08:08:50.908Z,12.39
2023-10-26T08:09:50.799Z,12.41
2023-10-26T08:10:50.794Z,12.43
2023-10-26T08:11:50.777Z,12.43
2023-10-26T08:12:50.749Z,12.42
2023-10-26T08:13:50.780Z,12.40
2023-10-26T08:16:28.904Z,12.37
2023-10-26T08:16:29.926Z,12.34
2023-10-26T08:16:52.090Z,12.32
2023-10-26T08:17:50.814Z,12.30
2023-10-26T08:18:50.749Z,12.28
2023-10-26T08:19:50.727Z,12.26
2023-10-26T08:20:50.652Z,12.24
2023-10-26T08:21:50.649Z,12.23
2023-10-26T08:22:50.693Z,12.21
2023-10-26T08:23:50.668Z,12.20
2023-10-26T08:24:50.668Z,12.20
2023-10-26T08:25:50.634Z,12.20
2023-10-26T08:26:50.599Z,12.21
2023-10-26T08:27:50.590Z,12.24
2023-10-26T08:28:51.967Z,12.27
2023-10-26T08:29:50.570Z,12.29
2023-10-26T08:30:50.556Z,12.29
2023-10-26T08:31:50.591Z,12.29
2023-10-26T08:32:50.806Z,12.30
2023-10-26T08:33:50.536Z,12.31
2023-10-26T08:34:50.550Z,12.32
2023-10-26T08:35:50.600Z,12.33
2023-10-26T08:37:07.941Z,12.34
2023-10-26T08:37:51.554Z,12.36
2023-10-26T08:38:50.551Z,12.38
2023-10-26T08:39:50.453Z,12.42
2023-10-26T08:40:50.472Z,12.47
2023-10-26T08:41:50.445Z,12.53
2023-10-26T08:42:50.418Z,12.59
2023-10-26T08:43:50.473Z,12.64
2023-10-26T08:44:50.418Z,12.69
2023-10-26T08:45:50.456Z,12.73
2023-10-26T08:46:50.409Z,12.76
2023-10-26T08:47:50.464Z,12.77
2023-10-26T08:48:50.595Z,12.77
2023-10-26T08:50:03.658Z,12.76
2023-10-26T08:50:51.371Z,12.74
2023-10-26T08:51:50.334Z,12.71
2023-10-26T08:52:50.387Z,12.69
2023-10-26T08:53:50.313Z,12.66
2023-10-26T08:54:50.313Z,12.64
2023-10-26T08:55:50.290Z,12.61
2023-10-26T08:56:50.263Z,12.58
2023-10-26T08:57:50.337Z,12.56
2023-10-26T08:58:50.296Z,12.54
2023-10-26T08:59:50.245Z,12.52
2023-10-26T09:00:50.248Z,12.50
2023-10-26T09:01:50.308Z,12.49
2023-10-26T09:02:50.495Z,12.47
2023-10-26T09:03:50.273Z,12.45
2023-10-26T09:04:50.202Z,12.43
2023-10-26T09:05:50.174Z,12.41
2023-10-26T09:06:50.277Z,12.39
2023-10-26T09:07:50.312Z,12.36
2023-10-26T09:08:50.157Z,12.34
2023-10-26T09:09:50.162Z,12.31
2023-10-26T09:10:50.219Z,12.29
2023-10-26T09:11:50.168Z,12.27
2023-10-26T09:12:50.096Z,12.25
2023-10-26T09:13:50.170Z,12.23
2023-10-26T09:14:50.197Z,12.21
2023-10-26T09:15:50.076Z,12.20
2023-10-26T09:16:50.263Z,12.18
2023-10-26T09:17:50.054Z,12.17
2023-10-26T09:18:50.171Z,12.17
2023-10-26T09:19:50.187Z,12.17
2023-10-26T09:20:50.039Z,12.17
2023-10-26T09:21:49.986Z,12.18
2023-10-26T09:22:50.232Z,12.18
2023-10-26T09:23:49.984Z,12.19
2023-10-26T09:24:50.020Z,12.19
2023-10-26T09:25:49.959Z,12.20
2023-10-26T09:26:50.028Z,12.21
2023-10-26T09:27:49.946Z,12.22
2023-10-26T09:28:50.040Z,12.23
2023-10-26T09:29:49.925Z,12.24
2023-10-26T09:30:50.603Z,12.25
2023-10-26T09:31:49.996Z,12.26
2023-10-26T09:32:50.012Z,12.27
2023-10-26T09:33:50.537Z,12.29
2023-10-26T09:34:49.895Z,12.31
2023-10-26T09:35:49.844Z,12.33
2023-10-26T09:36:50.958Z,12.35
2023-10-26T09:37:50.071Z,12.37
2023-10-26T09:38:50.537Z,12.39
2023-10-26T09:39:54.377Z,12.41
2023-10-26T09:40:50.820Z,12.42
2023-10-26T09:41:49.778Z,12.43
2023-10-26T09:42:49.775Z,12.43
2023-10-26T09:43:49.884Z,12.44
2023-10-26T09:44:49.779Z,12.44
2023-10-26T09:45:49.867Z,12.44
2023-10-26T09:46:49.769Z,12.45
2023-10-26T09:47:49.863Z,12.45
2023-10-26T09:48:49.802Z,12.44
2023-10-26T09:49:49.732Z,12.44
2023-10-26T09:50:49.683Z,12.44
2023-10-26T09:51:49.684Z,12.44
2023-10-26T09:52:49.682Z,12.43
2023-10-26T09:53:49.982Z,12.44
2023-10-26T09:54:49.632Z,12.44
2023-10-26T09:55:49.675Z,12.44
2023-10-26T09:56:49.628Z,12.44
2023-10-26T09:57:49.632Z,12.45
2023-10-26T09:58:49.619Z,12.45
2023-10-26T09:59:49.574Z,12.46
2023-10-26T10:00:49.624Z,12.46
2023-10-26T10:01:49.641Z,12.47
2023-10-26T10:02:49.576Z,12.47
2023-10-26T10:03:49.611Z,12.48
2023-10-26T10:04:49.567Z,12.48
2023-10-26T10:05:49.534Z,12.48
2023-10-26T10:06:49.556Z,12.48
2023-10-26T10:07:49.515Z,12.49
2023-10-26T10:08:49.473Z,12.49
2023-10-26T10:09:49.519Z,12.50
2023-10-26T10:10:49.490Z,12.50
2023-10-26T10:11:49.460Z,12.50
2023-10-26T10:12:49.493Z,12.51
2023-10-26T10:13:49.434Z,12.51
2023-10-26T10:14:49.531Z,12.52
2023-10-26T10:15:49.430Z,12.53
2023-10-26T10:16:49.483Z,12.54
2023-10-26T10:17:49.517Z,12.55
2023-10-26T10:18:49.541Z,12.56
2023-10-26T10:19:49.353Z,12.56
2023-10-26T10:20:49.399Z,12.56
2023-10-26T10:21:49.419Z,12.56
2023-10-26T10:22:49.426Z,12.55
2023-10-26T10:23:49.381Z,12.54
2023-10-26T10:24:49.351Z,12.53
2023-10-26T10:25:49.349Z,12.53
2023-10-26T10:26:49.304Z,12.52
2023-10-26T10:27:49.381Z,12.52
2023-10-26T10:28:49.315Z,12.51
2023-10-26T10:29:49.245Z,12.50
2023-10-26T10:30:49.295Z,12.50
2023-10-26T10:31:49.263Z,12.49
2023-10-26T10:32:49.417Z,12.49
2023-10-26T10:33:49.229Z,12.48
2023-10-26T10:34:49.198Z,12.47
2023-10-26T10:35:49.424Z,12.46
2023-10-26T10:36:49.246Z,12.44
2023-10-26T10:37:49.226Z,12.43
2023-10-26T10:38:49.200Z,12.43
2023-10-26T10:39:49.342Z,12.42
2023-10-26T10:40:49.189Z,12.42
2023-10-26T10:41:49.190Z,12.41
2023-10-26T10:42:49.225Z,12.41
2023-10-26T10:43:49.138Z,12.42
2023-10-26T10:44:49.297Z,12.42
2023-10-26T10:45:49.274Z,12.42
2023-10-26T10:46:49.166Z,12.41
2023-10-26T10:47:49.403Z,12.41
2023-10-26T10:48:49.018Z,12.41
2023-10-26T10:49:49.039Z,12.42
2023-10-26T10:50:49.067Z,12.42
2023-10-26T10:51:49.052Z,12.43
2023-10-26T10:52:48.988Z,12.43
2023-10-26T10:53:48.959Z,12.44
2023-10-26T10:55:48.995Z,12.45
2023-10-26T10:56:48.959Z,12.45
2023-10-26T10:57:49.015Z,12.46
2023-10-26T10:58:48.951Z,12.46
2023-10-26T10:59:48.917Z,12.46
2023-10-26T11:00:48.968Z,12.46
2023-10-26T11:01:48.932Z,12.47
2023-10-26T11:02:48.908Z,12.47
2023-10-26T11:03:48.974Z,12.48
2023-10-26T11:04:57.379Z,12.49
2023-10-26T11:05:49.848Z,12.49
2023-10-26T11:06:49.140Z,12.49
2023-10-26T11:07:48.868Z,12.49
2023-10-26T11:08:48.822Z,12.49
2023-10-26T11:09:48.833Z,12.48
2023-10-26T11:10:48.939Z,12.48
2023-10-26T11:11:48.779Z,12.47
2023-10-26T11:12:48.806Z,12.47
2023-10-26T11:13:48.772Z,12.48
2023-10-26T11:14:48.778Z,12.48
2023-10-26T11:15:48.795Z,12.49
2023-10-26T11:16:48.758Z,12.50
2023-10-26T11:17:48.774Z,12.50
2023-10-26T11:18:48.762Z,12.51
2023-10-26T11:19:48.737Z,12.51
2023-10-26T11:20:48.689Z,12.50
2023-10-26T11:21:48.714Z,12.50
2023-10-26T11:22:48.667Z,12.51
2023-10-26T11:23:48.706Z,12.50
2023-10-26T11:24:48.714Z,12.50
2023-10-26T11:25:48.650Z,12.51
2023-10-26T11:26:48.622Z,12.51
2023-10-26T11:27:48.628Z,12.51
2023-10-26T11:28:48.633Z,12.51
2023-10-26T11:29:48.629Z,12.50
2023-10-26T11:30:48.850Z,12.49
2023-10-26T11:31:48.587Z,12.48
2023-10-26T11:32:48.592Z,12.47
2023-10-26T11:33:48.602Z,12.47
2023-10-26T11:34:48.571Z,12.46
2023-10-26T11:35:48.530Z,12.46
2023-10-26T11:36:48.555Z,12.46
2023-10-26T11:37:48.732Z,12.46
2023-10-26T11:38:48.578Z,12.46
2023-10-26T11:39:48.527Z,12.47
2023-10-26T11:40:48.475Z,12.48
2023-10-26T11:41:49.811Z,12.49
2023-10-26T11:42:48.478Z,12.49
2023-10-26T11:43:48.692Z,12.50
2023-10-26T11:44:48.430Z,12.51
2023-10-26T11:45:48.469Z,12.51
2023-10-26T11:46:48.446Z,12.51
2023-10-26T11:47:48.413Z,12.52
2023-10-26T11:48:49.064Z,12.52
2023-10-26T11:49:49.893Z,12.52
2023-10-26T11:50:48.743Z,12.52
2023-10-26T11:51:54.153Z,12.52
2023-10-26T11:52:49.347Z,12.52
2023-10-26T11:53:48.464Z,12.53
2023-10-26T11:54:50.179Z,12.53
2023-10-26T11:55:48.423Z,12.53
2023-10-26T11:56:49.598Z,12.54
2023-10-26T11:57:48.359Z,12.54
2023-10-26T11:58:48.995Z,12.54
2023-10-26T11:59:48.395Z,12.54
2023-10-26T12:00:50.151Z,12.54
2023-10-26T12:01:48.429Z,12.54
2023-10-26T12:02:48.308Z,12.54
2023-10-26T12:03:48.317Z,12.54
2023-10-26T12:04:48.210Z,12.55
2023-10-26T12:05:48.203Z,12.55
2023-10-26T12:06:48.389Z,12.56
2023-10-26T12:07:48.569Z,12.56
2023-10-26T12:08:48.205Z,12.56
2023-10-26T12:09:48.180Z,12.56
2023-10-26T12:10:48.159Z,12.55
2023-10-26T12:11:48.167Z,12.55
2023-10-26T12:12:48.171Z,12.54
2023-10-26T12:13:48.115Z,12.53
2023-10-26T12:14:48.119Z,12.52
2023-10-26T12:15:48.186Z,12.51
2023-10-26T12:16:48.094Z,12.51
2023-10-26T12:17:48.148Z,12.51
2023-10-26T12:18:48.136Z,12.51
2023-10-26T12:19:48.094Z,12.51
2023-10-26T12:20:48.037Z,12.51
2023-10-26T12:21:48.047Z,12.52
2023-10-26T12:22:48.031Z,12.52
2023-10-26T12:23:48.024Z,12.53
2023-10-26T12:24:48.125Z,12.53
2023-10-26T12:25:48.086Z,12.54
2023-10-26T12:26:47.978Z,12.54
2023-10-26T12:28:20.507Z,12.54
2023-10-26T12:28:49.012Z,12.55
2023-10-26T12:29:47.999Z,12.55
2023-10-26T12:30:49.508Z,12.55
2023-10-26T12:31:48.156Z,12.55
2023-10-26T12:32:47.969Z,12.55
2023-10-26T12:33:48.036Z,12.55
2023-10-26T12:34:55.453Z,12.55
2023-10-26T12:35:47.956Z,12.55
2023-10-26T12:36:47.948Z,12.55
2023-10-26T12:37:47.892Z,12.55
2023-10-26T12:38:47.925Z,12.55
2023-10-26T12:39:47.923Z,12.55
2023-10-26T12:40:47.936Z,12.55
2023-10-26T12:41:47.851Z,12.55
2023-10-26T12:42:47.888Z,12.56
2023-10-26T12:43:47.900Z,12.56
2023-10-26T12:44:47.858Z,12.56
2023-10-26T12:45:47.897Z,12.57
2023-10-26T12:46:47.808Z,12.57
2023-10-26T12:47:47.844Z,12.57
2023-10-26T12:48:47.830Z,12.58
2023-10-26T12:49:47.759Z,12.58
2023-10-26T12:50:47.740Z,12.58
2023-10-26T12:51:47.807Z,12.59
2023-10-26T12:52:47.738Z,12.59
2023-10-26T12:53:47.741Z,12.58
2023-10-26T12:54:47.774Z,12.58
2023-10-26T12:55:47.702Z,12.58